createdAt,value
2017-12-02T00:00:22.980Z,1.40
2017-12-02T00:02:50.463Z,1.40
2017-12-02T00:05:18.701Z,1.40
2017-12-02T00:07:50.053Z,1.40
2017-12-02T00:10:17.503Z,1.50
2017-12-02T00:12:46.387Z,1.50
2017-12-02T00:15:18.469Z,1.50
2017-12-02T00:17:45.934Z,1.60
2017-12-02T00:20:13.404Z,1.50
2017-12-02T00:22:40.871Z,1.30
2017-12-02T00:25:12.284Z,1.40
2017-12-02T00:27:41.276Z,1.40
2017-12-02T00:30:08.732Z,1.40
2017-12-02T00:32:44.063Z,1.40
2017-12-02T00:35:12.298Z,1.40
2017-12-02T00:37:39.756Z,1.40
2017-12-02T00:40:07.228Z,1.40
2017-12-02T00:42:47.092Z,1.40
2017-12-02T00:48:19.596Z,1.30
2017-12-02T00:51:00.471Z,1.40
2017-12-02T00:53:27.945Z,1.40
2017-12-02T00:56:21.200Z,1.50
2017-12-02T00:59:01.205Z,1.50
2017-12-02T01:01:41.566Z,1.40
2017-12-02T01:04:21.284Z,1.40
2017-12-02T01:07:02.898Z,1.40
2017-12-02T01:09:30.349Z,1.40
2017-12-02T01:11:57.813Z,1.40
2017-12-02T01:14:25.302Z,1.50
2017-12-02T01:16:52.856Z,1.40
2017-12-02T01:19:32.858Z,1.40
2017-12-02T01:22:13.952Z,1.50
2017-12-02T01:24:54.135Z,1.40
2017-12-02T01:27:21.587Z,1.40
2017-12-02T01:30:03.666Z,1.30
2017-12-02T01:32:45.401Z,1.30
2017-12-02T01:35:26.763Z,1.30
2017-12-02T01:38:07.444Z,1.40
2017-12-02T01:40:49.023Z,1.50
2017-12-02T01:43:28.999Z,1.40
2017-12-02T01:46:09.501Z,1.30
2017-12-02T01:48:50.068Z,1.40
2017-12-02T01:51:31.729Z,1.40
2017-12-02T01:54:12.211Z,1.40
2017-12-02T01:56:52.679Z,1.40
2017-12-02T01:59:31.437Z,1.40
2017-12-02T02:02:11.643Z,1.30
2017-12-02T02:04:55.016Z,1.30
2017-12-02T02:07:34.824Z,1.30
2017-12-02T02:10:13.305Z,1.30
2017-12-02T02:12:53.698Z,1.30
2017-12-02T02:15:43.810Z,1.30
2017-12-02T02:18:23.290Z,1.20
2017-12-02T02:21:04.268Z,1.30
2017-12-02T02:23:44.362Z,1.20
2017-12-02T02:26:24.024Z,1.30
2017-12-02T02:29:03.544Z,1.20
2017-12-02T02:31:43.192Z,1.20
2017-12-02T02:34:10.639Z,1.20
2017-12-02T02:36:50.837Z,1.10
2017-12-02T02:39:32.276Z,1.20
2017-12-02T02:42:12.715Z,1.20
2017-12-02T02:44:53.420Z,1.10
2017-12-02T02:47:21.467Z,1.10
2017-12-02T02:50:01.739Z,1.10
2017-12-02T02:52:43.331Z,1.20
2017-12-02T02:55:23.318Z,1.20
2017-12-02T02:57:50.774Z,1.10
2017-12-02T03:00:31.721Z,1.10
2017-12-02T03:03:11.496Z,1.00
2017-12-02T03:05:38.945Z,1.10
2017-12-02T03:08:18.799Z,1.10
2017-12-02T03:11:00.244Z,1.20
2017-12-02T03:13:40.866Z,1.10
2017-12-02T03:16:21.372Z,1.10
2017-12-02T03:21:39.892Z,0.90
2017-12-02T03:24:20.280Z,0.90
2017-12-02T03:26:47.735Z,0.90
2017-12-02T03:29:27.642Z,1.00
2017-12-02T03:32:07.072Z,1.00
2017-12-02T03:34:46.288Z,1.00
2017-12-02T03:37:26.542Z,1.00
2017-12-02T03:40:06.944Z,0.90
2017-12-02T03:42:34.472Z,0.90
2017-12-02T03:45:15.497Z,0.90
2017-12-02T03:47:42.981Z,0.70
2017-12-02T03:50:22.756Z,0.60
2017-12-02T03:53:02.249Z,0.70
2017-12-02T03:55:41.085Z,0.80
2017-12-02T03:58:21.729Z,0.90
2017-12-02T04:01:02.192Z,0.90
2017-12-02T04:03:29.638Z,0.90
2017-12-02T04:06:10.320Z,0.90
2017-12-02T04:08:50.188Z,1.00
2017-12-02T04:11:30.780Z,0.90
2017-12-02T04:13:58.251Z,0.90
2017-12-02T04:16:38.288Z,1.00
2017-12-02T04:19:18.635Z,1.10
2017-12-02T04:21:59.204Z,1.00
2017-12-02T04:24:39.814Z,1.00
2017-12-02T04:27:07.292Z,1.00
2017-12-02T04:29:34.766Z,1.00
2017-12-02T04:32:16.704Z,0.90
2017-12-02T04:34:57.438Z,0.70
2017-12-02T04:37:38.792Z,0.50
2017-12-02T04:40:18.890Z,0.50
2017-12-02T04:43:00.331Z,0.30
2017-12-02T04:45:40.796Z,0.30
2017-12-02T04:48:21.277Z,0.20
2017-12-02T04:50:48.804Z,0.20
2017-12-02T04:53:28.748Z,0.30
2017-12-02T04:56:09.099Z,0.10
2017-12-02T04:58:49.653Z,0.20
2017-12-02T05:01:30.049Z,0.10
2017-12-02T05:04:10.547Z,0.30
2017-12-02T05:06:50.993Z,0.10
2017-12-02T05:09:18.440Z,0.20
2017-12-02T05:12:03.265Z,0.20
2017-12-02T05:14:42.156Z,0.30
2017-12-02T05:17:21.536Z,0.20
2017-12-02T05:20:02.149Z,0.30
2017-12-02T05:22:41.968Z,0.20
2017-12-02T05:25:29.881Z,0.30
2017-12-02T05:28:10.414Z,0.40
2017-12-02T05:30:48.807Z,0.40
2017-12-02T05:33:29.174Z,0.40
2017-12-02T05:35:56.624Z,0.40
2017-12-02T05:41:16.636Z,0.50
2017-12-02T05:43:55.414Z,0.60
2017-12-02T05:46:35.576Z,0.60
2017-12-02T05:49:15.039Z,0.60
2017-12-02T05:51:53.922Z,0.50
2017-12-02T05:54:34.334Z,0.60
2017-12-02T05:59:41.019Z,0.50
2017-12-02T06:02:21.691Z,0.40
2017-12-02T06:05:00.948Z,0.20
2017-12-02T06:07:41.158Z,0.10
2017-12-02T06:10:21.850Z,0.30
2017-12-02T06:13:02.923Z,0.40
2017-12-02T06:15:43.496Z,0.50
2017-12-02T06:18:23.257Z,0.50
2017-12-02T06:21:04.157Z,0.60
2017-12-02T06:23:31.650Z,0.60
2017-12-02T06:25:59.104Z,0.60
2017-12-02T06:28:38.907Z,0.70
2017-12-02T06:33:54.251Z,0.80
2017-12-02T06:36:34.692Z,0.80
2017-12-02T06:39:03.292Z,0.70
2017-12-02T06:41:30.768Z,0.60
2017-12-02T06:43:58.277Z,0.60
2017-12-02T06:46:26.528Z,0.50
2017-12-02T06:48:53.988Z,0.50
2017-12-02T06:51:21.444Z,0.50
2017-12-02T06:53:48.960Z,0.50
2017-12-02T06:56:16.428Z,0.40
2017-12-02T06:58:44.565Z,0.40
2017-12-02T07:01:12.823Z,0.40
2017-12-02T07:03:40.283Z,0.30
2017-12-02T07:06:07.755Z,0.30
2017-12-02T07:08:35.235Z,0.20
2017-12-02T07:11:03.185Z,0.20
2017-12-02T07:13:30.670Z,0.30
2017-12-02T07:15:58.263Z,0.30
2017-12-02T07:18:25.715Z,0.30
2017-12-02T07:20:53.205Z,0.40
2017-12-02T07:23:20.662Z,0.40
2017-12-02T07:25:48.264Z,0.40
2017-12-02T07:28:15.729Z,0.40
2017-12-02T07:30:44.218Z,0.50
2017-12-02T07:33:12.279Z,0.50
2017-12-02T07:35:40.528Z,0.60
2017-12-02T07:38:12.675Z,0.60
2017-12-02T07:40:40.152Z,0.60
2017-12-02T07:43:07.635Z,0.60
2017-12-02T07:45:35.137Z,0.70
2017-12-02T07:48:02.604Z,0.80
2017-12-02T07:50:30.070Z,0.80
2017-12-02T07:52:57.540Z,0.80
2017-12-02T07:55:25.587Z,0.70
2017-12-02T07:57:57.907Z,0.80
2017-12-02T08:00:25.376Z,0.80
2017-12-02T08:02:53.070Z,0.90
2017-12-02T08:05:20.540Z,0.90
2017-12-02T08:07:48.006Z,0.90
2017-12-02T08:10:15.487Z,0.80
2017-12-02T08:12:43.758Z,0.90
2017-12-02T08:15:11.981Z,1.00
2017-12-02T08:17:39.454Z,0.90
2017-12-02T08:20:06.900Z,0.90
2017-12-02T08:22:45.806Z,0.90
2017-12-02T08:25:27.148Z,0.90
2017-12-02T08:28:09.492Z,1.00
2017-12-02T08:30:37.397Z,1.10
2017-12-02T08:33:18.146Z,0.90
2017-12-02T08:36:00.213Z,1.00
2017-12-02T08:38:48.424Z,1.00
2017-12-02T08:41:28.620Z,1.10
2017-12-02T08:44:09.383Z,1.10
2017-12-02T08:49:43.141Z,0.90
2017-12-02T08:52:23.955Z,1.10
2017-12-02T08:55:03.817Z,1.30
2017-12-02T08:57:43.928Z,1.40
2017-12-02T09:00:22.974Z,1.30
2017-12-02T09:02:50.558Z,1.40
2017-12-02T09:05:18.063Z,1.50
2017-12-02T09:10:51.782Z,1.60
2017-12-02T09:13:43.349Z,1.60
2017-12-02T09:16:31.712Z,1.50
2017-12-02T09:22:05.156Z,1.30
2017-12-02T09:27:05.555Z,1.70
2017-12-02T09:32:35.163Z,1.80
2017-12-02T09:35:02.965Z,2.00
2017-12-02T09:37:30.469Z,2.00
2017-12-02T09:40:03.425Z,1.90
2017-12-02T09:42:30.914Z,1.80
2017-12-02T09:44:58.417Z,1.80
2017-12-02T09:47:25.862Z,1.50
2017-12-02T09:49:53.360Z,2.20
2017-12-02T09:52:24.741Z,2.80
2017-12-02T09:54:53.004Z,3.20
2017-12-02T09:57:20.740Z,3.20
2017-12-02T09:59:48.344Z,3.20
2017-12-02T10:02:15.833Z,2.90
2017-12-02T10:04:43.296Z,2.90
2017-12-02T10:07:10.820Z,2.80
2017-12-02T10:09:39.092Z,2.50
2017-12-02T10:12:06.649Z,2.50
2017-12-02T10:14:38.200Z,2.40
2017-12-02T10:17:05.729Z,2.40
2017-12-02T10:19:33.213Z,2.50
2017-12-02T10:22:01.448Z,2.40
2017-12-02T10:24:29.019Z,2.40
2017-12-02T10:26:56.709Z,2.40
2017-12-02T10:29:28.365Z,2.20
2017-12-02T10:31:55.855Z,2.20
2017-12-02T10:34:23.932Z,2.20
2017-12-02T10:37:05.032Z,2.50
2017-12-02T10:42:29.349Z,2.50
2017-12-02T10:45:09.525Z,2.50
2017-12-02T10:47:50.113Z,2.20
2017-12-02T10:53:16.141Z,1.80
2017-12-02T10:55:43.625Z,1.80
2017-12-02T10:58:11.126Z,2.10
2017-12-02T11:00:38.633Z,2.10
2017-12-02T11:03:06.176Z,2.00
2017-12-02T11:05:34.129Z,2.00
2017-12-02T11:08:02.223Z,2.10
2017-12-02T11:10:29.862Z,2.10
2017-12-02T11:12:58.225Z,2.10
2017-12-02T11:15:37.833Z,2.10
2017-12-02T11:18:09.700Z,2.10
2017-12-02T11:20:37.277Z,2.10
2017-12-02T11:23:04.852Z,2.00
2017-12-02T11:25:32.342Z,1.90
2017-12-02T11:27:59.804Z,2.00
2017-12-02T11:30:33.759Z,1.80
2017-12-02T11:33:01.269Z,1.80
2017-12-02T11:35:29.725Z,1.90
2017-12-02T11:37:57.240Z,1.90
2017-12-02T11:40:24.756Z,2.00
2017-12-02T11:42:52.244Z,1.70
2017-12-02T11:45:19.720Z,1.80
2017-12-02T11:47:47.900Z,1.80
2017-12-02T11:50:15.435Z,1.60
2017-12-02T11:52:43.373Z,1.60
2017-12-02T11:55:10.834Z,1.50
2017-12-02T11:57:38.347Z,1.70
2017-12-02T12:00:05.821Z,1.60
2017-12-02T12:02:33.299Z,1.70
2017-12-02T12:05:18.067Z,1.90
2017-12-02T12:07:45.556Z,1.90
2017-12-02T12:10:12.992Z,1.90
2017-12-02T12:12:40.468Z,2.00
2017-12-02T12:15:07.944Z,1.80
2017-12-02T12:17:35.437Z,1.90
2017-12-02T12:20:16.144Z,2.00
2017-12-02T12:23:28.392Z,2.00
2017-12-02T12:26:09.778Z,2.20
2017-12-02T12:28:49.569Z,2.40
2017-12-02T12:34:12.816Z,2.30
2017-12-02T12:36:56.896Z,2.30
2017-12-02T12:39:37.971Z,2.40
2017-12-02T12:45:12.028Z,2.40
2017-12-02T12:48:13.796Z,2.40
2017-12-02T12:50:54.896Z,2.20
2017-12-02T12:53:34.689Z,2.20
2017-12-02T12:59:19.850Z,2.40
2017-12-02T13:05:02.696Z,2.90
2017-12-02T13:10:37.307Z,3.20
2017-12-02T13:13:22.389Z,3.70
2017-12-02T13:16:08.802Z,3.90
2017-12-02T13:18:49.950Z,3.80
2017-12-02T13:21:17.520Z,3.50
2017-12-02T13:23:45.140Z,3.50
2017-12-02T13:30:38.984Z,3.50
2017-12-02T13:35:59.429Z,3.50
2017-12-02T13:44:22.720Z,3.70
2017-12-02T13:46:59.027Z,3.40
2017-12-02T13:49:27.349Z,3.60
2017-12-02T13:51:58.593Z,3.50
2017-12-02T13:54:26.126Z,3.50
2017-12-02T13:56:59.751Z,3.40
2017-12-02T13:59:33.359Z,3.40
2017-12-02T14:02:01.344Z,3.40
2017-12-02T14:04:29.332Z,3.40
2017-12-02T14:06:56.955Z,3.80
2017-12-02T14:09:25.272Z,3.90
2017-12-02T14:11:53.565Z,3.80
2017-12-02T14:37:46.194Z,2.90
2017-12-02T15:03:32.956Z,2.50
2017-12-02T15:06:26.849Z,2.50
2017-12-02T15:08:55.101Z,2.50
2017-12-02T15:11:41.358Z,2.40
2017-12-02T15:14:08.849Z,2.40
2017-12-02T15:16:52.654Z,2.40
2017-12-02T15:19:22.207Z,2.20
2017-12-02T15:42:03.015Z,2.00
2017-12-02T15:44:30.710Z,2.10
2017-12-02T15:46:58.583Z,2.10
2017-12-02T15:49:41.056Z,2.10
2017-12-02T15:55:38.853Z,2.00
2017-12-02T15:58:06.308Z,2.10
2017-12-02T16:00:33.771Z,2.00
2017-12-02T16:03:01.221Z,1.90
2017-12-02T16:05:28.837Z,1.80
2017-12-02T16:07:56.344Z,1.80
2017-12-02T16:10:23.813Z,1.80
2017-12-02T16:12:51.259Z,1.60
2017-12-02T16:15:18.834Z,1.60
2017-12-02T16:17:46.305Z,1.60
2017-12-02T16:20:13.761Z,1.70
2017-12-02T16:22:42.086Z,1.50
2017-12-02T16:25:09.546Z,1.50
2017-12-02T16:27:37.051Z,1.50
2017-12-02T16:30:04.525Z,1.40
2017-12-02T16:32:32.018Z,1.50
2017-12-02T16:34:59.456Z,1.50
2017-12-02T16:37:27.084Z,1.40
2017-12-02T16:39:54.573Z,1.60
2017-12-02T16:51:13.865Z,1.60
2017-12-02T16:56:45.904Z,1.50
2017-12-02T17:02:01.199Z,1.20
2017-12-02T17:04:28.937Z,1.10
2017-12-02T17:06:57.176Z,1.10
2017-12-02T17:09:40.695Z,1.10
2017-12-02T17:17:33.810Z,1.10
2017-12-02T17:20:20.989Z,1.10
2017-12-02T17:26:13.156Z,1.20
2017-12-02T17:28:41.049Z,1.20
2017-12-02T17:31:09.099Z,1.20
2017-12-02T17:36:50.684Z,1.30
2017-12-02T17:39:18.989Z,1.10
2017-12-02T17:41:59.375Z,1.10
2017-12-02T17:44:26.848Z,1.30
2017-12-02T17:46:54.362Z,1.20
2017-12-02T17:49:36.914Z,1.50
2017-12-02T17:52:08.281Z,1.50
2017-12-02T17:56:34.772Z,1.50
2017-12-02T17:59:03.204Z,1.60
2017-12-02T18:01:30.822Z,1.60
2017-12-02T18:06:59.776Z,1.50
2017-12-02T18:09:27.295Z,1.50
2017-12-02T18:11:55.623Z,1.40
2017-12-02T18:14:23.198Z,1.50
2017-12-02T18:16:51.578Z,1.50
2017-12-02T18:19:20.462Z,1.40
2017-12-02T18:21:48.036Z,1.40
2017-12-02T18:24:15.541Z,1.40
2017-12-02T18:26:44.779Z,1.30
2017-12-02T18:29:13.044Z,1.20
2017-12-02T18:31:40.623Z,1.20
2017-12-02T18:34:08.087Z,1.20
2017-12-02T18:36:35.595Z,1.30
2017-12-02T18:39:03.038Z,1.50
2017-12-02T18:41:30.612Z,1.50
2017-12-02T18:43:59.013Z,1.50
2017-12-02T18:46:26.547Z,1.50
2017-12-02T18:48:54.790Z,1.50
2017-12-02T18:54:45.901Z,1.50
2017-12-02T18:57:13.458Z,1.40
2017-12-02T18:59:40.964Z,1.40
2017-12-02T19:05:05.428Z,1.40
2017-12-02T19:07:33.144Z,1.40
2017-12-02T19:10:00.672Z,1.40
2017-12-02T19:12:28.274Z,1.50
2017-12-02T19:20:51.510Z,1.60
2017-12-02T19:23:20.338Z,1.60
2017-12-02T19:25:47.919Z,1.70
2017-12-02T19:28:15.733Z,1.70
2017-12-02T19:33:44.888Z,1.70
2017-12-02T19:36:24.857Z,1.80
2017-12-02T19:38:52.332Z,1.70
2017-12-02T19:41:32.406Z,1.60
2017-12-02T19:43:59.948Z,1.60
2017-12-02T19:46:27.404Z,1.50
2017-12-02T19:48:54.863Z,1.50
2017-12-02T19:51:22.330Z,1.50
2017-12-02T19:53:49.786Z,1.40
2017-12-02T19:56:17.259Z,1.40
2017-12-02T19:58:44.844Z,1.40
2017-12-02T20:01:12.383Z,1.40
2017-12-02T20:03:39.864Z,1.40
2017-12-02T20:06:08.094Z,1.40
2017-12-02T20:08:35.683Z,1.40
2017-12-02T20:11:03.177Z,1.40
2017-12-02T20:13:30.624Z,1.40
2017-12-02T20:15:58.159Z,1.30
2017-12-02T20:18:25.821Z,1.40
2017-12-02T20:20:54.123Z,1.60
2017-12-02T20:23:21.744Z,1.60
2017-12-02T20:25:49.865Z,1.60
2017-12-02T20:28:17.329Z,1.60
2017-12-02T20:30:45.033Z,1.70
2017-12-02T20:33:12.492Z,1.50
2017-12-02T20:35:39.955Z,1.40
2017-12-02T20:38:07.413Z,1.50
2017-12-02T20:40:35.869Z,1.50
2017-12-02T20:43:03.352Z,1.40
2017-12-02T20:45:30.852Z,1.40
2017-12-02T20:47:59.090Z,1.40
2017-12-02T20:50:38.051Z,1.40
2017-12-02T20:53:05.496Z,1.40
2017-12-02T21:04:07.128Z,1.40
2017-12-02T21:06:35.827Z,1.40
2017-12-02T21:09:18.157Z,1.30
2017-12-02T21:11:47.305Z,1.30
2017-12-02T21:16:57.399Z,1.30
2017-12-02T21:19:26.712Z,1.10
2017-12-02T21:21:56.756Z,1.00
2017-12-02T21:24:25.695Z,0.90
2017-12-02T21:26:54.849Z,1.00
2017-12-02T21:29:24.721Z,1.20
2017-12-02T21:32:05.123Z,1.20
2017-12-02T21:34:32.692Z,1.10
2017-12-02T21:39:41.501Z,0.90
2017-12-02T21:42:26.192Z,1.00
2017-12-02T21:47:43.419Z,1.20
2017-12-02T21:50:12.173Z,1.30
2017-12-02T21:52:51.654Z,1.40
2017-12-02T21:55:19.255Z,1.40
2017-12-02T21:57:48.248Z,1.20
2017-12-02T22:00:17.339Z,1.10
2017-12-02T22:05:35.904Z,1.10
2017-12-02T22:08:20.787Z,1.10
2017-12-02T22:13:35.754Z,1.10
2017-12-02T22:19:17.839Z,1.20
2017-12-02T22:21:56.891Z,1.30
2017-12-02T22:24:24.431Z,1.40
2017-12-02T22:26:52.117Z,1.30
2017-12-02T22:32:13.747Z,1.40
2017-12-02T22:37:28.869Z,1.40
2017-12-02T22:43:06.135Z,1.40
2017-12-02T22:48:41.527Z,1.40
2017-12-02T22:51:08.993Z,1.40
2017-12-02T22:53:36.450Z,1.40
2017-12-02T22:56:03.892Z,1.50
2017-12-02T22:58:32.162Z,1.40
2017-12-02T23:06:49.697Z,1.50
2017-12-02T23:09:17.149Z,1.60
2017-12-02T23:19:41.942Z,1.50
2017-12-02T23:22:10.242Z,1.40
2017-12-02T23:24:38.553Z,1.60
2017-12-02T23:27:06.001Z,1.50
2017-12-02T23:29:34.320Z,1.50
2017-12-02T23:32:01.761Z,1.50
2017-12-02T23:34:29.278Z,1.40
2017-12-02T23:36:56.866Z,1.50
2017-12-02T23:39:24.333Z,1.60
2017-12-02T23:41:51.807Z,1.50
2017-12-02T23:44:19.269Z,1.60
2017-12-02T23:46:46.756Z,1.60
2017-12-02T23:49:14.264Z,1.40
2017-12-02T23:51:41.736Z,1.40
2017-12-02T23:54:09.234Z,1.40
2017-12-02T23:56:36.699Z,1.50
2017-12-02T23:59:04.177Z,1.60
